Time;durP1;ratioP1;P1;durP2;ratioP2;P2;SDS_P1;SDS_P2;PMS_P1;PMS_P2;Temp;Humidity;BMP_temperature;BMP_pressure;BME280_temperature;BME280_humidity;BME280_pressure;Samples;Min_cycle;Max_cycle;Signal;HPM_P1;HPM_P2
2023/08/24 00:01:58;;;;;;;7.47;4.75;;;;;;;18.35;100.00;98977.28;5109241;28;20543;-74
2023/08/24 00:04:23;;;;;;;6.80;4.93;;;;;;;18.17;100.00;98951.81;5108115;28;20489;-74
2023/08/24 00:06:49;;;;;;;6.50;5.18;;;;;;;18.33;100.00;98968.50;5097089;28;20110;-74
2023/08/24 00:09:15;;;;;;;9.70;5.18;;;;;;;18.29;100.00;98972.81;5094065;28;20052;-75
2023/08/24 00:11:40;;;;;;;6.35;5.47;;;;;;;18.20;100.00;98968.81;5109158;28;20106;-74
2023/08/24 00:14:06;;;;;;;8.45;4.95;;;;;;;18.33;100.00;98969.31;5092426;28;20545;-75
2023/08/24 00:16:32;;;;;;;9.02;5.18;;;;;;;18.30;100.00;98969.81;5085326;28;20031;-74
2023/08/24 00:18:57;;;;;;;8.07;4.88;;;;;;;18.31;100.00;98965.16;5110019;28;20102;-75
2023/08/24 00:21:23;;;;;;;7.63;5.18;;;;;;;18.28;100.00;98968.41;5107364;28;20063;-74
2023/08/24 00:23:49;;;;;;;8.90;4.72;;;;;;;18.27;100.00;98967.59;5104634;28;20103;-74
2023/08/24 00:26:18;;;;;;;9.20;5.38;;;;;;;18.10;100.00;98959.38;5112262;28;20076;-74
2023/08/24 00:28:43;;;;;;;6.47;5.15;;;;;;;18.04;100.00;98954.88;5092406;28;20023;-74
2023/08/24 00:31:09;;;;;;;6.70;4.65;;;;;;;18.13;100.00;98958.88;5117230;28;20565;-75
2023/08/24 00:33:34;;;;;;;8.07;5.50;;;;;;;18.13;100.00;98956.13;5111455;28;20077;-75
2023/08/24 00:36:03;;;;;;;8.85;5.68;;;;;;;18.02;100.00;98939.78;5111419;28;20034;-74
2023/08/24 00:38:29;;;;;;;8.25;6.32;;;;;;;18.02;100.00;98943.34;5106795;28;20019;-75
2023/08/24 00:40:56;;;;;;;7.60;5.45;;;;;;;18.18;100.00;98945.28;5110646;28;20027;-75
2023/08/24 00:43:24;;;;;;;8.18;5.88;;;;;;;18.11;100.00;98939.13;5110797;28;20054;-74
2023/08/24 00:45:55;;;;;;;6.55;5.55;;;;;;;18.03;100.00;98942.28;5110180;28;20034;-75
2023/08/24 00:48:25;;;;;;;12.13;5.63;;;;;;;17.94;100.00;98933.63;5093219;28;20023;-76
2023/08/24 00:50:51;;;;;;;9.80;5.70;;;;;;;17.88;100.00;98929.16;5111608;28;20019;-75
2023/08/24 00:53:18;;;;;;;10.52;5.72;;;;;;;17.85;100.00;98924.19;5111883;28;20050;-75
2023/08/24 00:55:44;;;;;;;8.10;5.65;;;;;;;17.91;100.00;98922.34;5092463;28;20417;-75
2023/08/24 00:58:10;;;;;;;8.20;5.40;;;;;;;17.87;100.00;98924.78;5111298;28;20111;-75
2023/08/24 01:00:35;;;;;;;8.27;4.88;;;;;;;17.73;100.00;98926.13;5089721;28;20164;-74
2023/08/24 01:03:01;;;;;;;9.15;5.25;;;;;;;17.70;100.00;98921.16;5085382;28;20043;-75
2023/08/24 01:05:28;;;;;;;9.23;5.40;;;;;;;17.74;100.00;98917.69;5111528;28;20031;-75
2023/08/24 01:07:53;;;;;;;7.00;5.15;;;;;;;17.82;100.00;98919.22;5109118;28;20020;-75
2023/08/24 01:10:19;;;;;;;5.80;5.03;;;;;;;17.85;100.00;98915.97;5105096;28;20023;-75
2023/08/24 01:13:07;;;;;;;8.02;4.65;;;;;;;17.95;100.00;98920.78;5114742;28;20068;-75
2023/08/24 01:15:43;;;;;;;15.05;4.93;;;;;;;17.90;100.00;98910.59;5117864;27;20020;-75
2023/08/24 01:18:14;;;;;;;11.23;5.15;;;;;;;17.96;100.00;98914.22;5107574;28;20047;-75
2023/08/24 01:20:41;;;;;;;6.32;4.90;;;;;;;17.88;100.00;98906.44;5097606;28;20024;-74
2023/08/24 01:23:48;;;;;;;8.70;5.25;;;;;;;17.88;100.00;98911.91;5098748;28;20019;-75
2023/08/24 01:26:18;;;;;;;6.00;5.40;;;;;;;17.85;100.00;98907.75;5099144;28;20036;-75
2023/08/24 01:28:45;;;;;;;5.75;5.07;;;;;;;17.77;100.00;98888.16;5116186;28;20059;-75
2023/08/24 01:31:10;;;;;;;13.05;5.15;;;;;;;17.91;100.00;98906.75;5096318;28;20027;-75
2023/08/24 01:33:36;;;;;;;11.05;5.32;;;;;;;17.79;100.00;98907.88;5112998;28;20031;-75
2023/08/24 01:36:02;;;;;;;7.30;5.60;;;;;;;17.71;100.00;98912.72;5099413;28;20034;-75
2023/08/24 01:38:28;;;;;;;8.15;5.15;;;;;;;17.66;100.00;98915.34;5119091;27;20035;-75
2023/08/24 01:40:59;;;;;;;9.90;5.13;;;;;;;17.65;100.00;98923.78;5119866;28;20064;-75
2023/08/24 01:43:30;;;;;;;7.70;5.40;;;;;;;17.66;100.00;98918.09;5116745;28;20028;-75
2023/08/24 01:45:57;;;;;;;6.53;4.90;;;;;;;17.61;100.00;98934.41;5117678;28;20378;-75
2023/08/24 01:48:24;;;;;;;10.48;4.57;;;;;;;17.54;100.00;98939.19;5118492;28;20023;-75
2023/08/24 01:50:51;;;;;;;8.70;5.28;;;;;;;17.42;100.00;98932.94;5117182;28;20030;-74
2023/08/24 01:53:16;;;;;;;9.45;5.13;;;;;;;17.36;100.00;98937.50;5118777;27;20085;-74
2023/08/24 01:55:43;;;;;;;8.35;5.07;;;;;;;17.25;100.00;98920.06;5115546;27;20019;-74
2023/08/24 01:58:08;;;;;;;6.70;5.32;;;;;;;17.28;100.00;98944.19;5093152;28;20073;-75
2023/08/24 02:00:33;;;;;;;8.48;5.22;;;;;;;17.18;100.00;98934.94;5121035;27;20019;-75
2023/08/24 02:02:59;;;;;;;7.57;5.20;;;;;;;17.14;100.00;98951.00;5093220;27;20167;-75
2023/08/24 02:05:27;;;;;;;7.20;5.53;;;;;;;17.12;100.00;98944.94;5110410;28;20031;-74
2023/08/24 02:07:53;;;;;;;6.90;5.22;;;;;;;17.14;100.00;98961.13;5095403;28;20034;-75
2023/08/24 02:10:19;;;;;;;10.38;6.00;;;;;;;16.99;100.00;98942.50;5114562;28;20019;-74
2023/08/24 02:12:44;;;;;;;7.35;5.57;;;;;;;16.99;100.00;98942.50;5115170;27;20031;-74
2023/08/24 02:15:09;;;;;;;7.80;5.82;;;;;;;17.03;100.00;98943.69;5111682;28;20028;-74
2023/08/24 02:17:34;;;;;;;10.93;6.15;;;;;;;17.01;100.00;98937.63;5096067;28;20456;-74
2023/08/24 02:20:00;;;;;;;8.35;6.05;;;;;;;17.05;100.00;98936.06;5110383;28;20026;-74
2023/08/24 02:22:25;;;;;;;7.20;5.85;;;;;;;16.99;100.00;98937.84;5105306;27;20027;-74
2023/08/24 02:24:50;;;;;;;9.15;6.05;;;;;;;17.05;100.00;98945.06;5099335;28;20106;-75
2023/08/24 02:27:16;;;;;;;8.48;5.68;;;;;;;17.04;100.00;98935.22;5114204;28;20024;-75
2023/08/24 02:29:41;;;;;;;10.95;6.20;;;;;;;17.13;100.00;98935.66;5096059;28;20393;-75
2023/08/24 02:32:06;;;;;;;7.95;5.78;;;;;;;17.12;100.00;98935.94;5115125;27;20031;-75
2023/08/24 02:34:32;;;;;;;10.80;6.10;;;;;;;17.04;100.00;98915.28;5115865;27;20161;-74
2023/08/24 02:36:57;;;;;;;7.57;6.15;;;;;;;17.14;100.00;98929.13;5111995;27;20439;-74
2023/08/24 02:39:22;;;;;;;10.90;6.50;;;;;;;17.23;100.00;98932.31;5095704;28;20020;-74
2023/08/24 02:41:48;;;;;;;7.85;6.75;;;;;;;17.06;100.00;98921.31;5103181;28;20125;-74
2023/08/24 02:44:13;;;;;;;8.50;6.80;;;;;;;17.05;100.00;98911.44;5088581;28;20041;-74
2023/08/24 02:46:38;;;;;;;8.57;6.35;;;;;;;17.00;100.00;98911.34;5095414;28;20024;-75
2023/08/24 02:49:03;;;;;;;9.05;6.85;;;;;;;17.15;100.00;98914.38;5113589;28;20024;-75
2023/08/24 02:51:29;;;;;;;9.10;6.95;;;;;;;17.11;100.00;98912.38;5107038;27;20135;-75
2023/08/24 02:53:54;;;;;;;11.02;6.60;;;;;;;17.05;100.00;98908.72;5103897;27;20079;-75
2023/08/24 02:56:19;;;;;;;9.23;6.43;;;;;;;17.00;100.00;98903.16;5137567;28;20041;-75
2023/08/24 02:58:45;;;;;;;11.43;6.05;;;;;;;16.87;100.00;98904.25;5138860;27;20016;-75
2023/08/24 03:01:11;;;;;;;11.35;6.18;;;;;;;16.86;100.00;98911.63;5144751;27;20046;-79
2023/08/24 03:03:45;;;;;;;11.48;7.20;;;;;;;16.97;100.00;98920.84;5086709;22;20048;-54
2023/08/24 03:06:10;;;;;;;9.02;6.07;;;;;;;16.94;100.00;98915.88;5052383;28;20035;-53
2023/08/24 03:08:36;;;;;;;11.15;6.35;;;;;;;17.03;100.00;98922.66;5049479;28;20037;-53
2023/08/24 03:11:02;;;;;;;10.23;6.07;;;;;;;16.95;100.00;98920.28;5054908;28;20027;-53
2023/08/24 03:13:29;;;;;;;9.77;6.15;;;;;;;16.86;100.00;98927.19;5049636;28;20040;-52
2023/08/24 03:15:54;;;;;;;12.32;6.00;;;;;;;16.95;100.00;98941.31;5044999;28;20031;-53
2023/08/24 03:18:20;;;;;;;13.13;5.95;;;;;;;16.93;100.00;98927.91;5044012;28;20028;-52
2023/08/24 03:20:47;;;;;;;7.57;5.57;;;;;;;17.03;100.00;98924.56;5048308;28;20039;-54
2023/08/24 03:23:13;;;;;;;8.02;6.10;;;;;;;16.91;100.00;98913.63;5045359;28;20198;-53
2023/08/24 03:25:40;;;;;;;10.38;6.05;;;;;;;16.86;100.00;98917.09;5045574;28;20087;-53
2023/08/24 03:28:07;;;;;;;10.23;5.75;;;;;;;16.78;100.00;98912.00;5040237;28;20063;-53
2023/08/24 03:30:33;;;;;;;9.20;5.97;;;;;;;16.71;100.00;98908.53;5036085;28;20025;-53
2023/08/24 03:32:59;;;;;;;10.25;6.57;;;;;;;16.72;100.00;98899.28;5046221;28;20024;-53
2023/08/24 03:35:24;;;;;;;9.23;5.75;;;;;;;16.79;100.00;98897.28;5049994;28;20036;-53
2023/08/24 03:37:51;;;;;;;14.32;6.30;;;;;;;16.76;100.00;98885.97;5042703;28;20055;-53
2023/08/24 03:40:16;;;;;;;10.75;6.03;;;;;;;16.74;100.00;98879.91;5051751;28;20028;-53
2023/08/24 03:42:41;;;;;;;11.20;6.43;;;;;;;16.73;100.00;98868.16;5055184;28;20020;-53
2023/08/24 03:45:08;;;;;;;11.00;6.25;;;;;;;16.75;100.00;98871.47;5045685;28;20029;-54
2023/08/24 03:47:33;;;;;;;9.13;5.80;;;;;;;16.76;100.00;98862.19;5040576;28;20036;-53
2023/08/24 03:49:59;;;;;;;8.45;5.90;;;;;;;16.94;100.00;98863.97;5034718;28;20016;-53
2023/08/24 03:52:24;;;;;;;7.35;5.63;;;;;;;17.03;100.00;98857.03;5041072;28;20105;-53
2023/08/24 03:54:49;;;;;;;7.55;5.50;;;;;;;16.97;100.00;98860.72;5040890;28;20050;-53
2023/08/24 03:57:15;;;;;;;8.93;5.85;;;;;;;17.02;100.00;98871.75;5047745;28;20020;-53
2023/08/24 03:59:41;;;;;;;8.13;5.63;;;;;;;17.01;100.00;98874.75;5041428;28;20068;-53
2023/08/24 04:02:07;;;;;;;11.95;5.97;;;;;;;17.05;100.00;98863.06;5043926;28;20028;-53
2023/08/24 04:04:32;;;;;;;10.50;5.80;;;;;;;17.09;100.00;98860.69;5045351;28;20033;-53
2023/08/24 04:06:58;;;;;;;8.82;5.00;;;;;;;17.06;100.00;98848.34;5041533;28;20029;-53
2023/08/24 04:09:24;;;;;;;8.60;5.28;;;;;;;17.08;100.00;98853.56;5039802;28;20032;-53
2023/08/24 04:11:49;;;;;;;8.60;5.70;;;;;;;17.04;100.00;98850.50;5045299;28;20052;-53
2023/08/24 04:14:15;;;;;;;8.57;5.85;;;;;;;17.05;100.00;98854.88;5048889;28;20115;-54
2023/08/24 04:16:41;;;;;;;8.25;6.05;;;;;;;17.01;100.00;98844.69;5042971;28;20032;-53
2023/08/24 04:19:07;;;;;;;10.55;6.07;;;;;;;17.12;100.00;98854.72;5036775;28;20029;-53
2023/08/24 04:21:33;;;;;;;8.48;6.22;;;;;;;17.27;100.00;98843.25;5043020;28;20035;-56
2023/08/24 04:23:59;;;;;;;8.55;6.25;;;;;;;17.28;100.00;98845.72;5062814;28;20033;-56
2023/08/24 04:26:24;;;;;;;9.68;6.07;;;;;;;17.40;100.00;98844.84;5051547;28;20059;-56
2023/08/24 04:28:50;;;;;;;9.43;6.35;;;;;;;17.34;100.00;98838.44;5045931;28;20028;-56
2023/08/24 04:31:15;;;;;;;6.90;5.82;;;;;;;17.42;100.00;98842.69;5046868;28;20036;-56
2023/08/24 04:33:41;;;;;;;9.70;5.65;;;;;;;17.44;100.00;98832.34;5038211;28;20024;-56
2023/08/24 04:36:06;;;;;;;8.07;5.90;;;;;;;17.49;100.00;98832.41;5049144;28;20513;-56
2023/08/24 04:38:32;;;;;;;8.15;6.07;;;;;;;17.57;100.00;98831.19;5037577;28;20036;-56
2023/08/24 04:40:57;;;;;;;8.50;5.68;;;;;;;17.66;100.00;98821.50;5040465;28;20476;-56
2023/08/24 04:43:24;;;;;;;8.98;6.00;;;;;;;17.66;100.00;98822.31;5040410;28;20438;-56
2023/08/24 04:45:54;;;;;;;10.00;6.13;;;;;;;17.61;100.00;98813.22;5044126;28;20540;-56
2023/08/24 04:48:25;;;;;;;10.75;5.80;;;;;;;17.51;100.00;98809.22;5047935;28;20040;-56
2023/08/24 04:50:52;;;;;;;8.18;5.60;;;;;;;17.51;100.00;98811.13;5047636;28;20035;-63
2023/08/24 04:53:18;;;;;;;6.82;5.35;;;;;;;17.57;100.00;98821.06;5055155;28;20036;-62
2023/08/24 04:55:44;;;;;;;8.48;5.32;;;;;;;17.60;100.00;98823.28;5053183;28;20472;-63
2023/08/24 04:58:10;;;;;;;8.02;4.60;;;;;;;17.61;100.00;98824.97;5045796;28;20037;-62
2023/08/24 05:00:37;;;;;;;9.68;4.97;;;;;;;17.61;100.00;98816.75;5045583;28;20066;-62
2023/08/24 05:03:04;;;;;;;6.40;5.03;;;;;;;17.63;100.00;98811.88;5049285;28;20073;-62
2023/08/24 05:05:31;;;;;;;9.38;4.93;;;;;;;17.64;100.00;98808.06;5055310;28;20548;-63
2023/08/24 05:07:58;;;;;;;11.02;4.85;;;;;;;17.68;100.00;98806.50;5042160;28;20070;-63
2023/08/24 05:10:25;;;;;;;6.55;4.82;;;;;;;17.74;100.00;98802.75;5048168;28;20127;-63
2023/08/24 05:12:50;;;;;;;5.45;4.65;;;;;;;17.84;100.00;98796.63;5048959;28;20028;-62
2023/08/24 05:15:16;;;;;;;7.57;5.20;;;;;;;18.02;100.00;98790.03;5048652;28;20385;-63
2023/08/24 05:17:41;;;;;;;5.82;4.85;;;;;;;18.20;100.00;98786.16;5050505;28;20043;-62
2023/08/24 05:20:09;;;;;;;7.93;4.85;;;;;;;18.38;100.00;98779.56;5040449;28;20024;-62
2023/08/24 05:22:36;;;;;;;5.90;4.83;;;;;;;18.45;100.00;98774.72;5046803;28;20023;-63
2023/08/24 05:25:02;;;;;;;8.05;4.60;;;;;;;18.67;100.00;98765.66;5043229;28;20077;-62
2023/08/24 05:27:27;;;;;;;8.57;4.65;;;;;;;18.76;100.00;98767.72;5051367;28;20119;-62
2023/08/24 05:29:53;;;;;;;9.52;3.97;;;;;;;18.97;100.00;98765.19;5050113;28;20033;-63
2023/08/24 05:32:18;;;;;;;7.95;4.18;;;;;;;19.09;100.00;98751.31;5045549;28;20031;-62
2023/08/24 05:34:45;;;;;;;7.80;4.70;;;;;;;19.23;100.00;98752.53;5047277;28;20119;-62
2023/08/24 05:37:10;;;;;;;7.80;4.10;;;;;;;19.37;100.00;98753.75;5040682;28;20064;-62
2023/08/24 05:39:36;;;;;;;6.57;4.43;;;;;;;19.56;100.00;98756.09;5072172;28;20166;-62
2023/08/24 05:42:01;;;;;;;5.80;4.63;;;;;;;19.64;100.00;98766.56;5043170;28;20357;-62
2023/08/24 05:44:27;;;;;;;7.80;4.50;;;;;;;19.75;100.00;98764.75;5044406;28;20119;-62
2023/08/24 05:46:52;;;;;;;9.55;4.25;;;;;;;19.90;100.00;98760.19;5051766;28;20484;-62
2023/08/24 05:49:18;;;;;;;6.82;4.25;;;;;;;19.96;100.00;98766.53;5050105;28;20420;-60
2023/08/24 05:51:43;;;;;;;6.25;4.68;;;;;;;19.89;100.00;98766.78;5049385;28;20373;-59
2023/08/24 05:54:09;;;;;;;5.63;3.97;;;;;;;20.39;100.00;98758.25;5038986;28;20038;-59
2023/08/24 05:56:34;;;;;;;6.20;4.07;;;;;;;21.80;100.00;98741.41;5041838;28;20457;-59
2023/08/24 05:59:00;;;;;;;4.90;3.17;;;;;;;23.49;100.00;98746.09;5046433;28;20020;-59
2023/08/24 06:01:25;;;;;;;5.15;3.67;;;;;;;24.63;100.00;98744.63;5051632;28;20032;-59
2023/08/24 06:03:51;;;;;;;7.00;2.90;;;;;;;26.35;100.00;98747.56;5049922;28;20028;-55
2023/08/24 06:06:17;;;;;;;6.90;2.85;;;;;;;27.80;100.00;98748.69;5054150;28;20024;-54
2023/08/24 06:08:43;;;;;;;5.78;2.42;;;;;;;28.73;100.00;98750.59;5045576;28;20036;-54
2023/08/24 06:11:08;;;;;;;6.38;2.65;;;;;;;28.86;100.00;98746.03;5046552;28;20104;-54
2023/08/24 06:13:34;;;;;;;4.13;2.67;;;;;;;29.04;100.00;98744.88;5040485;28;20489;-54
2023/08/24 06:15:59;;;;;;;3.65;2.60;;;;;;;29.62;99.12;98734.38;5071574;28;20024;-60
2023/08/24 06:18:25;;;;;;;4.47;2.65;;;;;;;30.07;88.46;98745.09;5042485;28;20472;-60
2023/08/24 06:20:51;;;;;;;2.85;2.10;;;;;;;31.37;79.81;98735.97;5057026;28;20507;-56
2023/08/24 06:23:19;;;;;;;5.13;2.30;;;;;;;31.28;78.86;98751.94;5047810;28;20384;-56
2023/08/24 06:25:45;;;;;;;;;;;;;;;32.56;72.04;98751.28;5051585;28;20510;-62
2023/08/24 06:28:11;;;;;;;4.57;2.28;;;;;;;33.62;66.45;98749.31;5051619;28;19908;-56
2023/08/24 06:30:42;;;;;;;4.82;2.17;;;;;;;33.91;64.62;98753.69;5043228;28;21111;-56
2023/08/24 06:33:08;;;;;;;5.05;2.38;;;;;;;32.27;64.63;98770.72;5047285;28;20031;-56
2023/08/24 06:35:34;;;;;;;5.78;2.33;;;;;;;30.11;75.08;98776.78;5048746;28;20029;-60
2023/08/24 06:38:00;;;;;;;3.95;2.20;;;;;;;28.24;100.00;98785.91;5052743;28;20020;-60
2023/08/24 06:40:25;;;;;;;6.65;2.15;;;;;;;27.30;100.00;98803.28;5042323;28;20033;-60
2023/08/24 06:42:51;;;;;;;7.93;2.40;;;;;;;25.94;100.00;98814.09;5045958;28;20028;-60
2023/08/24 06:45:18;;;;;;;8.45;2.50;;;;;;;25.12;100.00;98837.47;5053396;28;20029;-60
2023/08/24 06:47:44;;;;;;;4.53;2.58;;;;;;;24.75;100.00;98838.25;5054428;28;20025;-60
2023/08/24 06:50:09;;;;;;;8.73;3.10;;;;;;;24.21;100.00;98838.28;5041351;28;20029;-60
2023/08/24 06:52:35;;;;;;;6.63;3.00;;;;;;;23.81;100.00;98840.28;5052340;28;20017;-62
2023/08/24 06:55:01;;;;;;;4.15;2.67;;;;;;;23.68;100.00;98840.91;5044538;28;20082;-54
2023/08/24 06:57:27;;;;;;;5.38;2.38;;;;;;;23.45;100.00;98850.78;5058273;28;20522;-54
2023/08/24 06:59:52;;;;;;;7.47;2.70;;;;;;;23.52;100.00;98850.44;5039861;28;20033;-55
2023/08/24 07:02:18;;;;;;;4.78;2.63;;;;;;;23.77;100.00;98855.00;5046502;28;20112;-59
2023/08/24 07:04:44;;;;;;;7.30;3.30;;;;;;;23.93;100.00;98864.78;5051331;28;20047;-59
2023/08/24 07:07:09;;;;;;;6.03;3.38;;;;;;;24.39;100.00;98857.97;5052847;28;20035;-60
2023/08/24 07:09:36;;;;;;;7.35;3.45;;;;;;;24.84;100.00;98842.03;5057330;28;20076;-60
2023/08/24 07:12:06;;;;;;;8.35;3.30;;;;;;;25.12;100.00;98829.16;5052249;28;20497;-54
2023/08/24 07:14:31;;;;;;;4.97;3.10;;;;;;;25.98;100.00;98821.47;5048816;28;20555;-54
2023/08/24 07:16:57;;;;;;;4.78;3.13;;;;;;;26.93;100.00;98809.91;5048099;28;20060;-54
2023/08/24 07:19:22;;;;;;;9.18;3.72;;;;;;;27.79;100.00;98792.34;5050821;28;20025;-54
2023/08/24 07:21:48;;;;;;;6.95;3.92;;;;;;;27.32;100.00;98776.00;5040972;28;20166;-60
2023/08/24 07:24:13;;;;;;;5.95;3.47;;;;;;;27.03;100.00;98770.00;5052535;28;20089;-60
2023/08/24 07:26:41;;;;;;;10.30;3.30;;;;;;;26.41;100.00;98751.91;5051380;28;20024;-54
2023/08/24 07:29:06;;;;;;;6.75;3.92;;;;;;;25.93;100.00;98743.94;5041440;28;20017;-54
2023/08/24 07:31:32;;;;;;;10.60;3.75;;;;;;;25.96;100.00;98751.69;5038128;28;20035;-60
2023/08/24 07:33:58;;;;;;;8.23;3.00;;;;;;;25.91;100.00;98756.47;5042049;28;20032;-60
2023/08/24 07:36:24;;;;;;;8.68;3.55;;;;;;;26.07;100.00;98748.69;5039412;28;20400;-60
2023/08/24 07:38:49;;;;;;;8.05;3.67;;;;;;;26.34;100.00;98761.75;5045332;28;20034;-60
2023/08/24 07:41:17;;;;;;;6.45;3.50;;;;;;;26.82;100.00;98753.81;5045374;28;20036;-60
2023/08/24 07:43:43;;;;;;;14.73;3.63;;;;;;;26.80;100.00;98761.66;5054780;28;20361;-60
2023/08/24 07:46:09;;;;;;;7.47;3.28;;;;;;;26.64;100.00;98765.88;5058887;28;20085;-62
2023/08/24 07:48:34;;;;;;;6.10;3.13;;;;;;;26.93;100.00;98762.72;5037523;28;20028;-60
2023/08/24 07:50:59;;;;;;;8.35;3.00;;;;;;;28.15;100.00;98756.09;5045559;28;20020;-54
2023/08/24 07:53:25;;;;;;;9.40;3.15;;;;;;;28.92;100.00;98756.66;5067457;28;20020;-55
2023/08/24 07:55:52;;;;;;;5.95;2.40;;;;;;;31.91;100.00;98760.25;5041581;28;20112;-54
2023/08/24 07:58:18;;;;;;;13.73;3.10;;;;;;;33.14;78.20;98768.72;5051849;28;20062;-55
2023/08/24 08:00:43;;;;;;;4.88;2.50;;;;;;;36.36;67.52;98775.63;5046555;28;20036;-55
2023/08/24 08:03:09;;;;;;;6.15;2.55;;;;;;;37.57;59.75;98782.28;5040776;28;20116;-60
2023/08/24 08:05:34;;;;;;;7.40;2.38;;;;;;;38.23;55.62;98770.50;5045666;28;20729;-61
2023/08/24 08:08:01;;;;;;;8.20;2.50;;;;;;;39.99;52.03;98775.25;5043233;28;20052;-61
2023/08/24 08:10:26;;;;;;;5.47;2.00;;;;;;;38.79;51.49;98772.22;5042634;28;20024;-61
2023/08/24 08:12:52;;;;;;;2.83;1.90;;;;;;;38.62;53.03;98772.88;5035400;28;20032;-56
2023/08/24 08:15:17;;;;;;;5.50;2.08;;;;;;;39.74;50.43;98770.28;5040972;28;20044;-55
2023/08/24 08:17:43;;;;;;;6.10;2.42;;;;;;;39.95;49.42;98778.06;5050349;28;20031;-62
2023/08/24 08:20:08;;;;;;;3.75;2.20;;;;;;;41.54;46.13;98763.34;5046315;28;20527;-56
2023/08/24 08:22:38;;;;;;;5.85;2.17;;;;;;;40.87;45.66;98773.66;5042978;28;20576;-62
2023/08/24 08:25:04;;;;;;;5.53;1.95;;;;;;;39.72;48.45;98772.72;5042448;28;20128;-62
2023/08/24 08:27:30;;;;;;;10.40;1.95;;;;;;;39.63;48.04;98770.25;5049433;28;20025;-62
2023/08/24 08:29:56;;;;;;;9.32;2.10;;;;;;;40.23;47.94;98777.31;5056014;28;20031;-62
2023/08/24 08:32:21;;;;;;;4.47;2.03;;;;;;;40.68;46.66;98777.75;5048033;28;20047;-61
2023/08/24 08:34:47;;;;;;;5.60;2.10;;;;;;;39.09;47.64;98776.84;5060116;28;20477;-56
2023/08/24 08:37:12;;;;;;;3.92;2.03;;;;;;;38.92;48.83;98779.19;5045924;28;20043;-56
2023/08/24 08:39:38;;;;;;;5.22;1.80;;;;;;;40.05;48.64;98777.25;5049722;28;20024;-56
2023/08/24 08:42:03;;;;;;;4.30;1.90;;;;;;;40.85;45.21;98775.28;5051390;28;20024;-62
2023/08/24 08:44:32;;;;;;;5.65;1.92;;;;;;;40.73;44.42;98768.03;5062116;28;20028;-61
2023/08/24 08:46:57;;;;;;;3.28;1.60;;;;;;;41.99;43.25;98768.41;5051708;28;20021;-56
2023/08/24 08:49:24;;;;;;;5.32;2.47;;;;;;;41.85;43.33;98768.47;5054882;28;20086;-56
2023/08/24 08:51:51;;;;;;;4.55;1.90;;;;;;;43.46;41.93;98776.41;5053112;28;20119;-56
2023/08/24 08:54:16;;;;;;;3.50;1.88;;;;;;;43.63;40.23;98776.66;5053846;28;20021;-55
2023/08/24 08:56:43;;;;;;;3.90;1.80;;;;;;;44.80;40.50;98771.16;5047070;28;20086;-55
2023/08/24 08:59:12;;;;;;;5.10;1.70;;;;;;;44.27;40.27;98777.75;5048041;28;20185;-55
2023/08/24 09:01:38;;;;;;;5.55;1.60;;;;;;;44.55;40.00;98773.66;5043248;28;20384;-61
2023/08/24 09:04:06;;;;;;;3.10;1.40;;;;;;;44.50;39.72;98768.44;5045524;28;20029;-55
2023/08/24 09:06:33;;;;;;;6.30;1.90;;;;;;;45.13;39.41;98759.16;5038765;28;20025;-55
2023/08/24 09:08:58;;;;;;;;;;;;;;;44.77;38.71;98749.22;5070881;28;20111;-56
2023/08/24 09:11:24;;;;;;;5.33;1.70;;;;;;;45.13;38.04;98748.53;5041221;28;20023;-56
2023/08/24 09:13:49;;;;;;;4.97;1.88;;;;;;;45.05;39.16;98744.19;5065247;28;20354;-62
2023/08/24 09:16:18;;;;;;;5.20;1.60;;;;;;;45.24;38.53;98739.75;5052858;28;20029;-55
2023/08/24 09:18:47;;;;;;;5.82;1.50;;;;;;;45.65;36.86;98733.59;5039650;28;20119;-56
2023/08/24 09:21:14;;;;;;;6.97;1.90;;;;;;;44.54;37.49;98730.06;5048318;28;20142;-56
2023/08/24 09:23:44;;;;;;;;;;;;;;;45.65;37.21;98730.72;5047836;28;20249;-56
2023/08/24 09:26:10;;;;;;;5.72;2.00;;;;;;;44.07;37.53;98721.47;5043038;28;19913;-56
2023/08/24 09:28:36;;;;;;;5.70;2.22;;;;;;;43.46;36.95;98710.09;5049112;28;20112;-56
2023/08/24 09:31:02;;;;;;;3.13;2.00;;;;;;;44.98;36.91;98699.44;5049999;28;20043;-62
2023/08/24 09:33:29;;;;;;;3.00;1.90;;;;;;;45.15;36.75;98694.63;5041150;28;20029;-56
2023/08/24 09:36:01;;;;;;;3.97;1.80;;;;;;;45.84;36.57;98674.75;5049094;28;20115;-56
2023/08/24 09:38:30;;;;;;;4.15;1.70;;;;;;;45.58;35.84;98667.22;5049439;28;20035;-56
2023/08/24 09:40:56;;;;;;;3.03;1.75;;;;;;;44.21;36.77;98662.56;5054526;28;20064;-56
2023/08/24 09:43:23;;;;;;;4.13;1.80;;;;;;;43.77;37.79;98668.13;5053066;28;20522;-56
2023/08/24 09:45:56;;;;;;;3.35;1.80;;;;;;;44.33;37.05;98661.91;5068036;28;20107;-56
2023/08/24 09:48:22;;;;;;;3.25;1.77;;;;;;;45.25;36.21;98656.50;5051178;28;20025;-61
2023/08/24 09:50:51;;;;;;;3.17;1.73;;;;;;;44.06;37.70;98645.69;5049713;28;20024;-62
2023/08/24 09:53:23;;;;;;;4.20;1.80;;;;;;;44.11;38.09;98633.78;5046196;28;20016;-62
2023/08/24 09:56:03;;;;;;;4.43;1.80;;;;;;;45.36;35.14;98626.88;5043354;28;20035;-62
2023/08/24 09:58:29;;;;;;;4.45;1.90;;;;;;;46.66;33.48;98614.56;5048205;28;20032;-62
2023/08/24 10:00:55;;;;;;;3.38;1.98;;;;;;;44.30;34.99;98606.56;5053534;28;20028;-61
2023/08/24 10:03:27;;;;;;;5.03;2.20;;;;;;;44.18;34.86;98607.22;5047622;28;20025;-61
2023/08/24 10:06:03;;;;;;;3.17;1.88;;;;;;;43.36;35.87;98599.97;5045306;28;20483;-56
2023/08/24 10:08:37;;;;;;;4.50;2.10;;;;;;;43.69;35.48;98604.75;5043491;28;20498;-56
2023/08/24 10:11:05;;;;;;;5.35;2.22;;;;;;;44.79;34.47;98592.59;5049816;28;20044;-56
2023/08/24 10:13:43;;;;;;;6.18;2.00;;;;;;;43.51;35.48;98589.97;5053938;28;20577;-56
2023/08/24 10:16:12;;;;;;;7.50;2.20;;;;;;;43.02;36.55;98583.72;5050130;28;20032;-61
2023/08/24 10:18:40;;;;;;;3.03;2.00;;;;;;;42.92;36.64;98579.00;5050038;28;20396;-61
2023/08/24 10:21:07;;;;;;;5.50;2.10;;;;;;;42.73;36.94;98581.22;5047396;28;20040;-61
2023/08/24 10:23:34;;;;;;;5.03;2.00;;;;;;;42.66;37.29;98578.50;5044384;28;20387;-61
2023/08/24 10:26:02;;;;;;;4.07;2.17;;;;;;;42.75;37.04;98577.97;5046055;28;20028;-61
2023/08/24 10:28:28;;;;;;;;;;;;;;;44.07;36.65;98547.53;5050394;28;20428;-61
2023/08/24 10:30:55;;;;;;;5.60;1.98;;;;;;;45.33;35.08;98571.44;5046228;28;19974;-61
2023/08/24 10:33:21;;;;;;;2.55;2.05;;;;;;;45.15;35.05;98568.16;5042728;28;20017;-61
2023/08/24 10:35:48;;;;;;;4.63;2.20;;;;;;;43.74;36.52;98572.13;5049376;28;20036;-61
2023/08/24 10:38:25;;;;;;;8.02;2.30;;;;;;;43.21;37.50;98568.88;5047521;28;20059;-62
2023/08/24 10:40:51;;;;;;;5.28;2.00;;;;;;;42.88;37.81;98559.13;5050573;28;20055;-61
2023/08/24 10:43:16;;;;;;;5.13;2.28;;;;;;;43.71;37.43;98550.19;5055152;28;20499;-55
2023/08/24 10:45:59;;;;;;;4.43;2.35;;;;;;;44.47;37.09;98555.34;5046518;28;20048;-56
2023/08/24 10:48:51;;;;;;;5.10;2.30;;;;;;;45.00;35.58;98544.84;5038645;28;20602;-56
2023/08/24 10:51:20;;;;;;;5.13;2.08;;;;;;;44.82;36.27;98545.22;5064641;28;20070;-56
2023/08/24 10:53:47;;;;;;;3.67;2.17;;;;;;;44.28;35.48;98543.47;5047439;28;20020;-56
2023/08/24 10:56:15;;;;;;;5.82;2.15;;;;;;;43.19;37.28;98533.50;5050015;28;20035;-59
2023/08/24 10:58:41;;;;;;;5.88;2.28;;;;;;;42.74;37.62;98530.84;5041201;28;20032;-56
2023/08/24 11:01:06;;;;;;;6.32;2.42;;;;;;;41.41;39.40;98517.97;5047582;28;20044;-56
2023/08/24 11:03:32;;;;;;;6.03;2.40;;;;;;;41.09;40.58;98515.38;5037759;28;20086;-61
2023/08/24 11:05:59;;;;;;;4.28;2.30;;;;;;;40.64;41.24;98509.47;5043392;28;20087;-61
2023/08/24 11:08:49;;;;;;;5.95;2.35;;;;;;;41.99;39.97;98504.88;5046297;28;20035;-61
2023/08/24 11:11:22;;;;;;;3.05;2.17;;;;;;;42.23;40.56;98502.19;5052305;28;20028;-61
2023/08/24 11:14:29;;;;;;;5.05;2.28;;;;;;;43.25;39.32;98495.56;5069174;28;20133;-61
2023/08/24 11:17:02;;;;;;;6.30;2.38;;;;;;;44.82;37.74;98499.56;5040217;28;20028;-61
2023/08/24 11:19:28;;;;;;;5.57;2.30;;;;;;;44.97;37.32;98500.84;5035674;28;20036;-61
2023/08/24 11:21:53;;;;;;;2.67;1.98;;;;;;;46.11;35.91;98496.34;5054093;28;20028;-61
2023/08/24 11:24:20;;;;;;;3.50;2.10;;;;;;;45.87;36.22;98495.78;5052967;28;20063;-61
2023/08/24 11:26:47;;;;;;;3.70;2.30;;;;;;;45.75;36.20;98483.03;5042029;28;20032;-61
2023/08/24 11:29:13;;;;;;;;;;;;;;;45.47;36.67;98484.56;5051532;28;20061;-61